Time;durP1;ratioP1;P1;durP2;ratioP2;P2;SDS_P1;SDS_P2;PMS_P1;PMS_P2;Temp;Humidity;BMP_temperature;BMP_pressure;BME280_temperature;BME280_humidity;BME280_pressure;Samples;Min_cycle;Max_cycle;Signal;HPM_P1;HPM_P2
2021/11/06 00:02:00;;;;;;;14.30;8.83;;;7.10;99.90;;;;;;4354017;32;20242;-68
2021/11/06 00:04:26;;;;;;;13.50;8.33;;;7.10;99.90;;;;;;4365264;32;20234;-68
2021/11/06 00:06:53;;;;;;;12.67;8.90;;;7.10;99.90;;;;;;4366469;32;20470;-68
2021/11/06 00:09:20;;;;;;;15.37;9.03;;;7.10;99.90;;;;;;4378316;32;20190;-68
2021/11/06 00:11:47;;;;;;;16.03;8.37;;;7.10;99.90;;;;;;4365815;32;20198;-68
2021/11/06 00:14:14;;;;;;;13.87;8.53;;;7.20;99.90;;;;;;4366473;32;20595;-68
2021/11/06 00:16:41;;;;;;;16.50;9.50;;;7.20;99.90;;;;;;4374047;32;20183;-68
2021/11/06 00:19:08;;;;;;;14.70;8.63;;;7.20;99.90;;;;;;4364811;32;20195;-68
2021/11/06 00:21:35;;;;;;;15.10;9.33;;;7.20;99.90;;;;;;4379233;32;20201;-68
2021/11/06 00:24:01;;;;;;;15.47;8.97;;;7.20;99.90;;;;;;4365875;32;20589;-68
2021/11/06 00:26:28;;;;;;;13.77;9.07;;;7.10;99.90;;;;;;4364089;32;20253;-68
2021/11/06 00:28:55;;;;;;;15.77;9.30;;;7.10;99.90;;;;;;4378224;32;20403;-68
2021/11/06 00:31:22;;;;;;;14.63;8.67;;;7.10;99.90;;;;;;4364850;32;20220;-67
2021/11/06 00:33:49;;;;;;;16.00;8.97;;;7.10;99.90;;;;;;4379576;32;20410;-68
2021/11/06 00:36:17;;;;;;;15.40;9.10;;;7.10;99.90;;;;;;4364164;32;20589;-68
2021/11/06 00:38:44;;;;;;;16.77;9.57;;;7.10;99.90;;;;;;4378353;32;20155;-67
2021/11/06 00:41:11;;;;;;;14.50;9.50;;;7.10;99.90;;;;;;4364370;32;20183;-68
2021/11/06 00:43:38;;;;;;;14.90;9.47;;;7.10;99.90;;;;;;4379575;32;20175;-68
2021/11/06 00:46:05;;;;;;;16.07;9.73;;;7.10;99.90;;;;;;4378851;32;20414;-68
2021/11/06 00:48:32;;;;;;;15.57;9.67;;;7.10;99.90;;;;;;4371914;32;20185;-68
2021/11/06 00:50:59;;;;;;;16.17;10.00;;;7.10;99.90;;;;;;4386175;32;20190;-68
2021/11/06 00:53:26;;;;;;;16.07;9.67;;;7.10;99.90;;;;;;4366626;32;20250;-68
2021/11/06 00:55:54;;;;;;;14.77;9.73;;;7.20;99.90;;;;;;4368412;32;20198;-68
2021/11/06 00:58:21;;;;;;;14.43;9.47;;;7.20;99.90;;;;;;4366529;32;20248;-68
2021/11/06 01:00:48;;;;;;;16.23;9.97;;;7.10;99.90;;;;;;4366605;32;20197;-68
2021/11/06 01:03:15;;;;;;;17.37;10.10;;;7.10;99.90;;;;;;4367653;32;20221;-68
2021/11/06 01:05:42;;;;;;;16.37;10.20;;;7.10;99.90;;;;;;4366654;32;20190;-68
2021/11/06 01:08:10;;;;;;;17.93;11.10;;;7.10;99.90;;;;;;4367074;32;20175;-68
2021/11/06 01:10:37;;;;;;;18.63;10.77;;;7.10;99.90;;;;;;4367108;32;20226;-68
2021/11/06 01:13:05;;;;;;;19.97;11.17;;;7.10;99.90;;;;;;4366592;32;20171;-68
2021/11/06 01:15:32;;;;;;;18.40;11.93;;;7.10;99.90;;;;;;4367583;32;20179;-68
2021/11/06 01:17:59;;;;;;;17.67;11.33;;;7.20;99.90;;;;;;4380620;32;20167;-68
2021/11/06 01:20:26;;;;;;;19.27;11.63;;;7.20;99.90;;;;;;4371548;32;20453;-68
2021/11/06 01:22:53;;;;;;;21.77;11.73;;;7.20;99.90;;;;;;4369486;32;20246;-68
2021/11/06 01:25:20;;;;;;;20.90;11.73;;;7.20;99.90;;;;;;4366415;32;20241;-69
2021/11/06 01:27:47;;;;;;;18.50;11.33;;;7.20;99.90;;;;;;4380096;32;20259;-68
2021/11/06 01:30:15;;;;;;;20.30;12.00;;;7.20;99.90;;;;;;4366171;32;20187;-68
2021/11/06 01:32:45;;;;;;;20.33;12.20;;;7.20;99.90;;;;;;4367936;32;20187;-68
2021/11/06 01:35:12;;;;;;;22.80;11.70;;;7.20;99.90;;;;;;4367438;32;20235;-68
2021/11/06 01:37:40;;;;;;;20.90;12.47;;;7.20;99.90;;;;;;4368208;32;20216;-68
2021/11/06 01:40:10;;;;;;;20.47;12.37;;;7.20;99.90;;;;;;4379909;32;20178;-69
2021/11/06 01:42:39;;;;;;;21.17;12.07;;;7.20;99.90;;;;;;4380088;32;20248;-68
2021/11/06 01:45:07;;;;;;;22.73;13.13;;;7.20;99.90;;;;;;4380245;32;20202;-68
2021/11/06 01:47:34;;;;;;;22.07;12.37;;;7.20;99.90;;;;;;4368061;32;20457;-68
2021/11/06 01:50:01;;;;;;;19.37;13.30;;;7.20;99.90;;;;;;4365915;32;20235;-68
2021/11/06 01:52:28;;;;;;;21.63;12.37;;;7.20;99.90;;;;;;4375895;32;20206;-68
2021/11/06 01:54:55;;;;;;;20.80;12.80;;;7.20;99.90;;;;;;4379812;32;20218;-68
2021/11/06 01:57:22;;;;;;;23.07;12.80;;;7.20;99.90;;;;;;4380375;32;20193;-68
2021/11/06 01:59:49;;;;;;;21.30;13.30;;;7.30;99.90;;;;;;4365931;32;20179;-68
2021/11/06 02:02:16;;;;;;;21.80;13.03;;;7.30;99.90;;;;;;4379719;32;20549;-68
2021/11/06 02:04:45;;;;;;;20.07;12.70;;;7.30;99.90;;;;;;4380745;32;20177;-68
2021/11/06 02:07:12;;;;;;;20.10;12.60;;;7.30;99.90;;;;;;4367819;32;20412;-68
2021/11/06 02:09:39;;;;;;;20.73;12.83;;;7.30;99.90;;;;;;4379718;32;20226;-68
2021/11/06 02:12:07;;;;;;;21.17;13.30;;;7.40;99.90;;;;;;4366234;32;20246;-68
2021/11/06 02:14:34;;;;;;;20.60;12.57;;;7.30;99.90;;;;;;4366755;32;20419;-68
2021/11/06 02:17:01;;;;;;;21.23;12.27;;;7.40;99.90;;;;;;4365516;32;20209;-68
2021/11/06 02:19:30;;;;;;;21.23;12.50;;;7.30;99.90;;;;;;4366921;32;20213;-68
2021/11/06 02:22:00;;;;;;;19.17;12.30;;;7.40;99.90;;;;;;4367912;32;20214;-68
2021/11/06 02:24:28;;;;;;;21.37;11.87;;;7.30;99.90;;;;;;4380576;32;20556;-68
2021/11/06 02:26:55;;;;;;;20.23;12.77;;;7.40;99.90;;;;;;4365507;32;20186;-68
2021/11/06 02:29:22;;;;;;;21.47;13.03;;;7.40;99.90;;;;;;4365116;32;20174;-68
2021/11/06 02:31:53;;;;;;;21.60;12.37;;;7.40;99.90;;;;;;4369081;32;20412;-68
2021/11/06 02:34:20;;;;;;;20.00;13.07;;;7.40;99.90;;;;;;4384562;32;20469;-68
2021/11/06 02:36:46;;;;;;;19.83;12.33;;;7.40;99.90;;;;;;4366025;32;20186;-68
2021/11/06 02:39:14;;;;;;;22.07;13.20;;;7.40;99.90;;;;;;4365704;32;20176;-68
2021/11/06 02:41:41;;;;;;;23.27;12.90;;;7.50;99.90;;;;;;4367006;32;20463;-68
2021/11/06 02:44:13;;;;;;;19.83;12.67;;;7.50;99.90;;;;;;4367385;32;20276;-68
2021/11/06 02:46:41;;;;;;;20.43;12.63;;;7.50;99.90;;;;;;4366890;32;20180;-68
2021/11/06 02:49:09;;;;;;;22.67;13.10;;;7.50;99.90;;;;;;4354789;32;20203;-68
2021/11/06 02:51:36;;;;;;;21.10;12.87;;;7.50;99.90;;;;;;4380496;32;20151;-68
2021/11/06 02:54:03;;;;;;;23.73;13.27;;;7.50;99.90;;;;;;4366676;32;20243;-68
2021/11/06 02:56:30;;;;;;;20.73;13.30;;;7.50;99.90;;;;;;4364865;32;20214;-68
2021/11/06 02:58:57;;;;;;;21.30;13.57;;;7.50;99.90;;;;;;4365057;32;20223;-68
2021/11/06 03:01:24;;;;;;;20.03;13.10;;;7.50;99.90;;;;;;4365968;32;20307;-68
2021/11/06 03:03:51;;;;;;;21.97;13.50;;;7.60;99.90;;;;;;4373521;32;20477;-68
2021/11/06 03:06:19;;;;;;;24.03;13.70;;;7.60;99.90;;;;;;4365430;32;20245;-68
2021/11/06 03:08:46;;;;;;;23.40;13.77;;;7.60;99.90;;;;;;4379139;32;20439;-68
2021/11/06 03:11:13;;;;;;;20.27;13.30;;;7.60;99.90;;;;;;4365066;32;20175;-68
2021/11/06 03:13:42;;;;;;;20.33;12.87;;;7.60;99.90;;;;;;4364920;32;20234;-68
2021/11/06 03:16:11;;;;;;;22.00;13.33;;;7.60;99.90;;;;;;4366812;32;20203;-68
2021/11/06 03:18:38;;;;;;;23.47;13.50;;;7.70;99.90;;;;;;4365702;32;20213;-68
2021/11/06 03:21:05;;;;;;;24.83;13.70;;;7.70;99.90;;;;;;4366334;32;20203;-68
2021/11/06 03:23:32;;;;;;;20.90;12.93;;;7.70;99.90;;;;;;4366530;32;20243;-68
2021/11/06 03:25:59;;;;;;;18.83;12.07;;;7.70;99.90;;;;;;4378530;32;20178;-68
2021/11/06 03:28:26;;;;;;;21.60;13.43;;;7.70;99.90;;;;;;4364679;32;20212;-68
2021/11/06 03:30:53;;;;;;;23.67;13.83;;;7.70;99.90;;;;;;4364860;32;20206;-68
2021/11/06 03:33:20;;;;;;;21.60;13.30;;;7.70;99.90;;;;;;4366260;32;20188;-68
2021/11/06 03:35:47;;;;;;;21.13;12.57;;;7.70;99.90;;;;;;4364974;32;20179;-68
2021/11/06 03:38:14;;;;;;;20.63;12.43;;;7.80;99.90;;;;;;4386979;32;20158;-68
2021/11/06 03:40:41;;;;;;;19.00;12.83;;;7.80;99.90;;;;;;4366462;32;20205;-68
2021/11/06 03:43:08;;;;;;;21.23;13.27;;;7.80;99.90;;;;;;4364742;32;20214;-68
2021/11/06 03:45:35;;;;;;;22.73;13.73;;;7.80;99.90;;;;;;4380090;32;20195;-68
2021/11/06 03:48:02;;;;;;;18.30;11.80;;;7.80;99.90;;;;;;4366017;32;20180;-68
2021/11/06 03:50:29;;;;;;;20.33;12.73;;;7.80;99.90;;;;;;4380201;32;20147;-68
2021/11/06 03:52:56;;;;;;;18.80;11.70;;;7.80;99.90;;;;;;4364685;32;20239;-68
2021/11/06 03:55:23;;;;;;;18.77;12.77;;;7.80;99.90;;;;;;4352218;32;20436;-68
2021/11/06 03:57:51;;;;;;;15.73;11.63;;;7.80;99.90;;;;;;4377939;32;20242;-68
2021/11/06 04:00:19;;;;;;;18.00;11.13;;;7.80;99.90;;;;;;4365363;32;20241;-68
2021/11/06 04:02:47;;;;;;;18.10;11.40;;;7.90;99.90;;;;;;4365760;32;20446;-68
2021/11/06 04:05:15;;;;;;;20.50;11.90;;;7.90;99.90;;;;;;4365259;32;20218;-68
2021/11/06 04:07:42;;;;;;;16.43;11.17;;;7.90;99.90;;;;;;4366362;32;20568;-68
2021/11/06 04:10:11;;;;;;;18.47;11.67;;;7.90;99.90;;;;;;4364337;32;20243;-68
2021/11/06 04:12:39;;;;;;;16.83;11.27;;;7.90;99.90;;;;;;4365689;32;20183;-68
2021/11/06 04:15:12;;;;;;;18.80;11.67;;;7.90;99.90;;;;;;4364438;32;20199;-69
2021/11/06 04:17:39;;;;;;;15.83;11.00;;;7.90;99.90;;;;;;4364370;32;20258;-68
2021/11/06 04:20:08;;;;;;;18.30;12.27;;;7.90;99.90;;;;;;4380942;32;20155;-68
2021/11/06 04:22:35;;;;;;;15.83;11.43;;;7.90;99.90;;;;;;4374126;32;20179;-68
2021/11/06 04:25:04;;;;;;;16.70;11.63;;;7.90;99.90;;;;;;4368789;32;20218;-67
2021/11/06 04:27:31;;;;;;;16.13;11.00;;;7.90;99.90;;;;;;4368893;32;20577;-68
2021/11/06 04:29:58;;;;;;;17.17;11.53;;;7.90;99.90;;;;;;4367360;32;20282;-68
2021/11/06 04:32:25;;;;;;;17.03;11.27;;;7.90;99.90;;;;;;4369086;32;20183;-68
2021/11/06 04:34:52;;;;;;;17.50;11.50;;;7.90;99.90;;;;;;4367651;32;20198;-68
2021/11/06 04:37:18;;;;;;;17.20;12.00;;;7.80;99.90;;;;;;4368433;32;20214;-68
2021/11/06 04:39:45;;;;;;;16.33;11.50;;;7.80;99.90;;;;;;4366912;32;20231;-68
2021/11/06 04:42:12;;;;;;;16.47;11.70;;;7.80;99.90;;;;;;4382268;32;20218;-68
2021/11/06 04:44:39;;;;;;;15.57;10.83;;;7.80;99.90;;;;;;4367052;32;20208;-68
2021/11/06 04:47:06;;;;;;;17.50;11.10;;;7.80;99.90;;;;;;4381170;32;20147;-68
2021/11/06 04:49:33;;;;;;;16.83;11.20;;;7.80;99.90;;;;;;4366652;32;20622;-68
2021/11/06 04:52:00;;;;;;;15.53;10.07;;;7.90;99.90;;;;;;4369824;32;20544;-68
2021/11/06 04:54:27;;;;;;;15.73;10.57;;;7.80;99.90;;;;;;4374097;32;20179;-68
2021/11/06 04:56:53;;;;;;;14.73;9.93;;;7.80;99.90;;;;;;4366416;32;20188;-68
2021/11/06 04:59:20;;;;;;;15.67;10.47;;;7.80;99.90;;;;;;4367311;32;20203;-68
2021/11/06 05:01:48;;;;;;;16.07;10.27;;;7.80;99.90;;;;;;4368311;32;20424;-67
2021/11/06 05:04:15;;;;;;;13.47;9.83;;;7.80;99.90;;;;;;4366803;32;20266;-67
2021/11/06 05:06:42;;;;;;;16.33;10.23;;;7.80;99.90;;;;;;4380658;32;20186;-68
2021/11/06 05:09:09;;;;;;;15.83;10.60;;;7.80;99.90;;;;;;4367544;32;20270;-68
2021/11/06 05:11:35;;;;;;;15.70;10.27;;;7.80;99.90;;;;;;4367523;32;20247;-67
2021/11/06 05:14:02;;;;;;;13.87;9.80;;;7.80;99.90;;;;;;4381596;32;20175;-68
2021/11/06 05:16:31;;;;;;;13.73;9.70;;;7.80;99.90;;;;;;4368725;32;20165;-67
2021/11/06 05:18:59;;;;;;;14.27;9.77;;;7.70;99.90;;;;;;4355780;32;20441;-68
2021/11/06 05:21:28;;;;;;;14.77;9.40;;;7.70;99.90;;;;;;4367700;32;20194;-68
2021/11/06 05:23:55;;;;;;;13.63;9.67;;;7.70;99.90;;;;;;4375687;32;20190;-68
2021/11/06 05:26:21;;;;;;;14.13;9.83;;;7.70;99.90;;;;;;4367867;32;20187;-68
2021/11/06 05:28:48;;;;;;;14.93;10.37;;;7.70;99.90;;;;;;4366900;32;20444;-68
2021/11/06 05:31:19;;;;;;;16.00;10.43;;;7.70;99.90;;;;;;4368091;32;20219;-68
2021/11/06 05:33:46;;;;;;;15.17;10.13;;;7.70;99.90;;;;;;4365402;32;20167;-68
2021/11/06 05:36:13;;;;;;;13.50;9.83;;;7.70;99.90;;;;;;4380086;32;20186;-68
2021/11/06 05:38:40;;;;;;;14.97;9.90;;;7.70;99.90;;;;;;4366109;32;20533;-67
2021/11/06 05:41:07;;;;;;;14.40;10.13;;;7.70;99.90;;;;;;4367824;32;20197;-67
2021/11/06 05:43:34;;;;;;;16.90;10.53;;;7.70;99.90;;;;;;4366176;32;20183;-68
2021/11/06 05:46:01;;;;;;;16.00;11.10;;;7.70;99.90;;;;;;4366283;32;20176;-68
2021/11/06 05:48:28;;;;;;;13.37;10.07;;;7.70;99.90;;;;;;4367346;32;20191;-67
2021/11/06 05:50:54;;;;;;;14.30;10.27;;;7.60;99.90;;;;;;4355393;32;20616;-68
2021/11/06 05:53:21;;;;;;;14.17;10.10;;;7.60;99.90;;;;;;4367540;32;20518;-67
2021/11/06 05:55:48;;;;;;;14.53;10.20;;;7.60;99.90;;;;;;4366630;32;20521;-67
2021/11/06 05:58:15;;;;;;;15.67;10.07;;;7.60;99.90;;;;;;4380034;32;20179;-68
2021/11/06 06:00:42;;;;;;;15.70;10.47;;;7.70;99.90;;;;;;4367286;32;20176;-68
2021/11/06 06:03:09;;;;;;;15.93;10.37;;;7.70;99.90;;;;;;4380132;32;20217;-67
2021/11/06 06:05:36;;;;;;;15.83;10.40;;;7.60;99.90;;;;;;4374667;32;20240;-67
2021/11/06 06:08:03;;;;;;;14.50;10.30;;;7.70;99.90;;;;;;4365894;32;20180;-67
2021/11/06 06:10:29;;;;;;;14.00;10.03;;;7.70;99.90;;;;;;4366314;32;20225;-67
2021/11/06 06:12:56;;;;;;;14.67;9.87;;;7.70;99.90;;;;;;4366353;32;20437;-68
2021/11/06 06:15:24;;;;;;;13.20;9.47;;;7.70;99.90;;;;;;4366860;32;20196;-67
2021/11/06 06:17:51;;;;;;;14.30;9.73;;;7.70;99.90;;;;;;4366137;32;20450;-68
2021/11/06 06:20:19;;;;;;;14.07;9.93;;;7.70;99.90;;;;;;4366910;32;20223;-68
2021/11/06 06:22:46;;;;;;;13.13;9.23;;;7.70;99.90;;;;;;4366283;32;20183;-67
2021/11/06 06:25:15;;;;;;;15.10;9.83;;;7.70;99.90;;;;;;4365777;32;20175;-67
2021/11/06 06:27:42;;;;;;;14.47;9.97;;;7.70;99.90;;;;;;4366985;32;20201;-68
2021/11/06 06:30:13;;;;;;;14.97;9.93;;;7.70;99.90;;;;;;4365796;32;20308;-68
2021/11/06 06:32:40;;;;;;;16.00;9.73;;;7.80;99.90;;;;;;4366501;32;20545;-67
2021/11/06 06:35:08;;;;;;;13.07;9.00;;;7.80;99.90;;;;;;4365715;32;20172;-67
2021/11/06 06:37:36;;;;;;;14.47;8.67;;;7.80;99.90;;;;;;4379437;32;20509;-67
2021/11/06 06:40:05;;;;;;;14.43;9.40;;;7.80;99.90;;;;;;4366260;32;20224;-67
2021/11/06 06:42:32;;;;;;;13.47;9.30;;;7.80;99.90;;;;;;4365404;32;20220;-67
2021/11/06 06:44:59;;;;;;;14.10;9.33;;;7.80;99.90;;;;;;4379743;32;20175;-68
2021/11/06 06:47:26;;;;;;;12.60;9.10;;;7.90;99.90;;;;;;4380581;32;20140;-67
2021/11/06 06:49:56;;;;;;;12.67;8.80;;;7.90;99.90;;;;;;4365039;32;20168;-67
2021/11/06 06:52:24;;;;;;;13.77;9.30;;;7.90;99.90;;;;;;4366813;32;20517;-67
2021/11/06 06:54:51;;;;;;;13.20;8.83;;;7.90;99.90;;;;;;4370410;32;20179;-67
2021/11/06 06:57:18;;;;;;;14.73;9.30;;;7.90;99.90;;;;;;4381302;32;20210;-67
2021/11/06 06:59:44;;;;;;;14.60;8.70;;;7.90;99.90;;;;;;4366502;32;20548;-67
2021/11/06 07:02:12;;;;;;;14.07;9.20;;;8.00;99.90;;;;;;4364699;32;20168;-67
2021/11/06 07:04:39;;;;;;;12.93;8.50;;;8.00;99.90;;;;;;4365285;32;20211;-67
2021/11/06 07:07:09;;;;;;;13.33;8.60;;;8.10;99.90;;;;;;4367382;32;20179;-67
2021/11/06 07:09:36;;;;;;;12.53;8.97;;;8.10;99.90;;;;;;4378770;32;20419;-67
2021/11/06 07:12:04;;;;;;;15.23;8.43;;;8.10;99.90;;;;;;4364895;32;20549;-67
2021/11/06 07:14:31;;;;;;;15.20;8.40;;;8.20;99.90;;;;;;4379982;32;20186;-67
2021/11/06 07:16:58;;;;;;;14.73;8.60;;;8.20;99.90;;;;;;4365334;32;20425;-68
2021/11/06 07:19:25;;;;;;;12.77;8.17;;;8.30;99.90;;;;;;4365212;32;20171;-68
2021/11/06 07:21:53;;;;;;;12.13;7.57;;;8.30;99.90;;;;;;4365959;32;20417;-67
2021/11/06 07:24:20;;;;;;;13.27;7.97;;;8.40;99.90;;;;;;4365303;32;20450;-69
2021/11/06 07:26:46;;;;;;;11.17;7.60;;;8.50;99.90;;;;;;4380296;32;20237;-68
2021/11/06 07:29:14;;;;;;;14.00;7.43;;;8.50;99.90;;;;;;4372100;32;20183;-68
2021/11/06 07:31:41;;;;;;;11.57;7.03;;;8.60;99.90;;;;;;4364988;32;20202;-68
2021/11/06 07:34:08;;;;;;;13.57;8.20;;;8.60;99.90;;;;;;4365490;32;20408;-68
2021/11/06 07:36:35;;;;;;;12.30;7.87;;;8.60;99.90;;;;;;4364869;32;20193;-68
2021/11/06 07:39:03;;;;;;;14.20;7.73;;;8.60;99.90;;;;;;4366421;32;20182;-68
2021/11/06 07:41:30;;;;;;;16.63;7.33;;;8.70;99.90;;;;;;4364801;32;20445;-68
2021/11/06 07:43:57;;;;;;;11.10;6.97;;;8.70;99.90;;;;;;4364513;32;20546;-68
2021/11/06 07:46:24;;;;;;;12.50;7.10;;;8.70;99.90;;;;;;4366321;32;20591;-68
2021/11/06 07:48:51;;;;;;;13.33;7.07;;;8.70;99.90;;;;;;4365914;32;20269;-68
2021/11/06 07:51:18;;;;;;;10.17;6.70;;;8.80;99.90;;;;;;4365809;32;20191;-68
2021/11/06 07:53:46;;;;;;;11.97;6.70;;;8.80;99.90;;;;;;4378999;32;20144;-68
2021/11/06 07:56:13;;;;;;;11.43;6.53;;;8.90;99.90;;;;;;4365246;32;20202;-69
2021/11/06 07:58:40;;;;;;;10.87;6.40;;;9.00;99.90;;;;;;4364778;32;20209;-68
2021/11/06 08:01:07;;;;;;;12.37;6.60;;;9.20;99.90;;;;;;4368717;32;20243;-67
2021/11/06 08:03:34;;;;;;;10.10;5.70;;;9.30;99.90;;;;;;4371332;32;20191;-75
2021/11/06 08:06:02;;;;;;;11.90;6.10;;;9.30;99.90;;;;;;4365456;32;20480;-68
2021/11/06 08:08:29;;;;;;;15.40;6.37;;;9.30;99.90;;;;;;4365899;32;20230;-68
2021/11/06 08:10:56;;;;;;;11.37;6.37;;;9.20;99.90;;;;;;4371667;32;20211;-68
2021/11/06 08:13:24;;;;;;;9.97;5.40;;;9.30;99.90;;;;;;4381267;32;20191;-68
2021/11/06 08:15:51;;;;;;;9.33;5.57;;;9.40;99.90;;;;;;4379870;32;20183;-68
2021/11/06 08:18:18;;;;;;;10.77;6.03;;;9.40;99.90;;;;;;4381504;32;20179;-68
2021/11/06 08:20:45;;;;;;;7.97;5.07;;;9.30;99.90;;;;;;4379557;32;20239;-68
2021/11/06 08:23:12;;;;;;;9.53;5.37;;;9.40;99.90;;;;;;4381485;32;20183;-68
2021/11/06 08:25:39;;;;;;;12.90;5.43;;;9.50;99.90;;;;;;4381257;32;20184;-68
2021/11/06 08:28:06;;;;;;;8.83;5.03;;;9.60;99.90;;;;;;4379162;32;20226;-68
2021/11/06 08:30:33;;;;;;;8.53;5.27;;;9.60;99.90;;;;;;4379760;32;20215;-68
2021/11/06 08:33:01;;;;;;;11.53;5.37;;;9.80;99.90;;;;;;4379947;32;20185;-68
2021/11/06 08:35:30;;;;;;;10.97;5.33;;;9.90;99.90;;;;;;4381077;32;20167;-68
2021/11/06 08:38:01;;;;;;;8.07;4.97;;;10.00;99.90;;;;;;4379229;32;20175;-68
2021/11/06 08:40:28;;;;;;;9.77;5.33;;;10.00;99.90;;;;;;4380688;32;20144;-68
2021/11/06 08:42:56;;;;;;;8.90;4.87;;;10.10;99.90;;;;;;4380513;32;20156;-68
2021/11/06 08:45:23;;;;;;;8.20;4.73;;;10.30;99.90;;;;;;4379756;32;20226;-68
2021/11/06 08:47:51;;;;;;;9.13;4.73;;;10.40;99.90;;;;;;4380537;32;20414;-68
2021/11/06 08:50:21;;;;;;;8.07;4.80;;;10.40;99.90;;;;;;4380693;32;20144;-68
2021/11/06 08:52:50;;;;;;;10.27;5.00;;;10.40;99.90;;;;;;4368352;32;20538;-67
2021/11/06 08:55:17;;;;;;;7.83;5.10;;;10.40;99.90;;;;;;4379990;32;20235;-68
2021/11/06 08:57:44;;;;;;;11.07;5.07;;;10.50;99.90;;;;;;4386486;32;20427;-67
2021/11/06 09:00:17;;;;;;;8.90;5.00;;;10.40;99.90;;;;;;4381909;32;20175;-67
2021/11/06 09:02:45;;;;;;;11.17;5.47;;;10.40;99.90;;;;;;4382299;32;20221;-67
2021/11/06 09:05:12;;;;;;;8.17;5.20;;;10.10;99.90;;;;;;4382359;32;20195;-68
2021/11/06 09:07:39;;;;;;;11.67;5.03;;;10.10;99.90;;;;;;4370473;32;20201;-67
2021/11/06 09:10:10;;;;;;;7.30;4.80;;;9.90;99.90;;;;;;4383100;32;20195;-67
2021/11/06 09:12:37;;;;;;;10.27;5.30;;;9.90;99.90;;;;;;4396784;32;20159;-67
2021/11/06 09:15:05;;;;;;;8.20;5.00;;;9.80;99.90;;;;;;4381540;32;20190;-67
2021/11/06 09:17:32;;;;;;;9.00;5.30;;;9.80;99.90;;;;;;4382219;32;20194;-67
2021/11/06 09:19:59;;;;;;;9.23;5.30;;;9.90;99.90;;;;;;4382696;32;20288;-67
2021/11/06 09:22:26;;;;;;;7.83;4.93;;;9.90;99.90;;;;;;4382997;32;20508;-67
2021/11/06 09:24:55;;;;;;;8.00;5.00;;;9.80;99.90;;;;;;4381501;32;20210;-67
2021/11/06 09:27:27;;;;;;;7.60;5.57;;;9.80;99.90;;;;;;4383147;32;20166;-68
2021/11/06 09:29:54;;;;;;;9.57;5.37;;;9.80;99.90;;;;;;4396225;32;20151;-67
2021/11/06 09:32:21;;;;;;;9.30;5.97;;;9.80;99.90;;;;;;4382356;32;20183;-67
2021/11/06 09:34:49;;;;;;;11.13;6.03;;;9.70;99.90;;;;;;4395597;32;20175;-67
2021/11/06 09:37:16;;;;;;;10.87;6.10;;;9.70;99.90;;;;;;4380954;32;20187;-68
2021/11/06 09:39:43;;;;;;;9.63;6.03;;;9.60;99.90;;;;;;4381358;32;20210;-68
2021/11/06 09:42:10;;;;;;;10.27;5.80;;;9.60;99.90;;;;;;4380997;32;20250;-68
2021/11/06 09:44:37;;;;;;;9.40;6.03;;;9.50;99.90;;;;;;4396324;32;20206;-68
2021/11/06 09:47:08;;;;;;;10.17;6.10;;;9.40;99.90;;;;;;4382050;32;20230;-68
2021/11/06 09:49:37;;;;;;;12.63;5.77;;;9.40;99.90;;;;;;4396525;32;20203;-68
2021/11/06 09:52:04;;;;;;;10.50;5.97;;;9.40;99.90;;;;;;4382449;32;20191;-68
2021/11/06 09:54:31;;;;;;;9.77;6.27;;;9.30;99.90;;;;;;4382171;32;20213;-68
2021/11/06 09:56:58;;;;;;;11.97;6.60;;;9.30;99.90;;;;;;4382002;32;20230;-68
2021/11/06 09:59:26;;;;;;;13.13;7.20;;;9.40;99.90;;;;;;4382225;32;20219;-67
2021/11/06 10:01:54;;;;;;;12.13;7.10;;;9.40;99.90;;;;;;4380812;32;20174;-66
2021/11/06 10:04:20;;;;;;;14.63;7.07;;;9.40;99.90;;;;;;4380509;32;20496;-67
2021/11/06 10:06:47;;;;;;;11.70;7.23;;;9.40;99.90;;;;;;4380719;32;20206;-67
2021/11/06 10:09:16;;;;;;;10.57;7.30;;;9.50;99.90;;;;;;4380920;32;20226;-66
2021/11/06 10:11:48;;;;;;;12.87;7.70;;;9.50;99.90;;;;;;4381764;32;20175;-67
2021/11/06 10:14:18;;;;;;;13.03;8.27;;;9.40;99.90;;;;;;4395622;32;20542;-67
2021/11/06 10:17:00;;;;;;;11.93;7.87;;;9.50;99.90;;;;;;4394829;32;20167;-67
2021/11/06 10:19:39;;;;;;;13.20;8.07;;;9.40;99.90;;;;;;4381509;32;20217;-67
2021/11/06 10:22:13;;;;;;;13.13;8.43;;;9.50;99.90;;;;;;4396077;32;20162;-67
2021/11/06 10:24:57;;;;;;;13.97;8.53;;;9.50;99.90;;;;;;4380804;32;20194;-67
2021/11/06 10:27:28;;;;;;;14.90;8.60;;;9.50;99.90;;;;;;4394030;32;20205;-67
2021/11/06 10:30:18;;;;;;;14.13;9.03;;;9.30;99.90;;;;;;4381638;32;20457;-67
2021/11/06 10:33:16;;;;;;;15.97;9.93;;;9.20;99.90;;;;;;4394254;32;20191;-67
2021/11/06 10:35:53;;;;;;;14.73;8.97;;;9.30;99.90;;;;;;4380504;32;20191;-66
2021/11/06 10:38:23;;;;;;;15.23;9.00;;;9.30;99.90;;;;;;4380726;32;20178;-67
2021/11/06 10:40:52;;;;;;;14.93;9.10;;;9.40;99.90;;;;;;4382002;32;20231;-67
2021/11/06 10:43:21;;;;;;;15.30;9.23;;;9.30;99.90;;;;;;4379695;32;20190;-67
2021/11/06 10:45:51;;;;;;;16.60;9.37;;;9.30;99.90;;;;;;4381643;32;20221;-67
2021/11/06 10:48:24;;;;;;;15.73;9.83;;;9.30;99.90;;;;;;4381741;32;20189;-67
2021/11/06 10:50:54;;;;;;;15.07;10.07;;;9.30;99.90;;;;;;4381097;32;20194;-67
2021/11/06 10:53:40;;;;;;;15.87;9.83;;;9.20;99.90;;;;;;4381895;32;20175;-67
2021/11/06 10:56:13;;;;;;;15.97;9.47;;;9.30;99.90;;;;;;4394574;32;20143;-67
2021/11/06 10:58:45;;;;;;;15.20;10.20;;;9.20;99.90;;;;;;4379564;32;20202;-67
2021/11/06 11:01:18;;;;;;;18.33;9.43;;;9.20;99.90;;;;;;4379920;32;20214;-67
2021/11/06 11:03:46;;;;;;;17.27;10.20;;;9.20;99.90;;;;;;4380028;32;20477;-67
2021/11/06 11:06:19;;;;;;;14.33;9.60;;;9.20;99.90;;;;;;4380885;32;20206;-67
2021/11/06 11:08:46;;;;;;;15.27;10.13;;;9.30;99.90;;;;;;4379539;32;20195;-67
2021/11/06 11:11:14;;;;;;;13.30;8.93;;;9.20;99.90;;;;;;4367619;32;20198;-67
2021/11/06 11:14:23;;;;;;;20.67;10.07;;;9.20;99.90;;;;;;4381518;32;20182;-67
2021/11/06 11:16:54;;;;;;;14.67;8.83;;;9.10;99.90;;;;;;4305548;33;20184;-67
2021/11/06 11:19:34;;;;;;;14.60;9.20;;;9.10;99.90;;;;;;4318636;33;20171;-67
2021/11/06 11:22:02;;;;;;;14.73;9.37;;;9.10;99.90;;;;;;4305383;33;20215;-67
2021/11/06 11:24:29;;;;;;;14.70;9.00;;;9.00;99.90;;;;;;4316999;33;20199;-67
2021/11/06 11:26:57;;;;;;;14.10;8.67;;;9.10;99.90;;;;;;4305348;33;20203;-67
2021/11/06 11:29:31;;;;;;;12.73;9.00;;;9.20;99.90;;;;;;4316987;33;20160;-67
2021/11/06 11:32:00;;;;;;;12.97;8.27;;;9.10;99.90;;;;;;4291917;33;20215;-67
2021/11/06 11:34:27;;;;;;;15.33;9.37;;;9.20;99.90;;;;;;4305595;33;20181;-67
2021/11/06 11:36:54;;;;;;;16.57;9.30;;;9.20;99.90;;;;;;4305276;33;20173;-67
2021/11/06 11:39:24;;;;;;;15.87;9.67;;;9.30;99.90;;;;;;4306119;33;20184;-67
2021/11/06 11:42:29;;;;;;;13.50;8.63;;;9.30;99.90;;;;;;4305234;33;20204;-67
2021/11/06 11:45:19;;;;;;;12.83;8.30;;;9.40;99.90;;;;;;4303818;33;20559;-67
2021/11/06 11:48:09;;;;;;;13.57;8.43;;;9.40;99.90;;;;;;4351383;32;20219;-68
2021/11/06 11:50:41;;;;;;;13.53;8.63;;;9.40;99.90;;;;;;4373151;32;20179;-67
2021/11/06 11:53:10;;;;;;;12.33;8.03;;;9.50;99.90;;;;;;4372897;32;20172;-68
2021/11/06 11:55:44;;;;;;;10.90;7.97;;;9.60;99.90;;;;;;4371411;32;20210;-67
2021/11/06 11:58:22;;;;;;;13.93;8.10;;;9.70;99.90;;;;;;4374103;32;20211;-68
2021/11/06 12:00:53;;;;;;;12.23;7.50;;;9.80;99.90;;;;;;4375603;32;20221;-67
2021/11/06 12:03:34;;;;;;;12.87;7.73;;;9.90;99.90;;;;;;4379405;32;20221;-67
2021/11/06 12:06:23;;;;;;;12.57;7.47;;;10.10;99.90;;;;;;4392929;32;20377;-67
2021/11/06 12:08:53;;;;;;;13.77;7.17;;;10.10;99.90;;;;;;4379242;32;20205;-67
2021/11/06 12:11:23;;;;;;;10.43;7.13;;;10.20;99.90;;;;;;4379212;32;20233;-67
2021/11/06 12:13:57;;;;;;;10.37;6.87;;;10.20;99.90;;;;;;4394245;32;20187;-67
2021/11/06 12:16:39;;;;;;;10.10;6.43;;;10.20;99.90;;;;;;4379045;32;20230;-68
2021/11/06 12:19:06;;;;;;;10.37;6.73;;;10.30;99.90;;;;;;4380831;32;20237;-67
2021/11/06 12:21:36;;;;;;;11.60;7.53;;;10.30;99.90;;;;;;4380878;32;20408;-67
2021/11/06 12:24:09;;;;;;;10.00;6.23;;;10.30;99.90;;;;;;4379006;32;20210;-67
2021/11/06 12:26:47;;;;;;;10.03;6.40;;;10.30;99.90;;;;;;4381019;32;20251;-67
2021/11/06 12:29:19;;;;;;;10.63;6.30;;;10.40;99.90;;;;;;4380399;32;20187;-67
2021/11/06 12:31:48;;;;;;;10.43;6.40;;;10.40;99.90;;;;;;4379858;32;20237;-67
2021/11/06 12:34:41;;;;;;;12.40;6.27;;;10.50;99.90;;;;;;4381226;32;20183;-67
2021/11/06 12:37:10;;;;;;;9.27;6.40;;;10.50;99.90;;;;;;4380656;32;20198;-67
2021/11/06 12:39:53;;;;;;;10.87;6.20;;;10.60;99.90;;;;;;4378742;32;20187;-67
2021/11/06 12:42:25;;;;;;;9.07;5.50;;;10.50;99.90;;;;;;4379043;32;20202;-67
2021/11/06 12:44:58;;;;;;;8.37;5.77;;;10.50;99.90;;;;;;4381938;32;20233;-67
2021/11/06 12:47:28;;;;;;;9.93;6.13;;;10.60;99.90;;;;;;4382259;32;20179;-67
2021/11/06 12:49:56;;;;;;;9.03;5.87;;;10.60;99.90;;;;;;4381617;32;20187;-68
2021/11/06 12:52:25;;;;;;;11.13;5.93;;;10.60;99.90;;;;;;4381111;32;20470;-67